sensor_id;sensor_type;location;lat;lon;timestamp;temperature;humidity
13093;DHT22;6612;49.568;11.000;2023-08-20T00:00:13;27.90;61.60
13093;DHT22;6612;49.568;11.000;2023-08-20T00:02:42;27.80;61.60
13093;DHT22;6612;49.568;11.000;2023-08-20T00:05:10;27.80;61.80
13093;DHT22;6612;49.568;11.000;2023-08-20T00:07:37;27.80;61.80
13093;DHT22;6612;49.568;11.000;2023-08-20T00:10:07;27.80;62.00
13093;DHT22;6612;49.568;11.000;2023-08-20T00:12:35;27.70;62.00
13093;DHT22;6612;49.568;11.000;2023-08-20T00:15:04;27.70;62.10
13093;DHT22;6612;49.568;11.000;2023-08-20T00:17:32;27.70;62.10
13093;DHT22;6612;49.568;11.000;2023-08-20T00:19:59;27.70;62.10
13093;DHT22;6612;49.568;11.000;2023-08-20T00:22:27;27.70;62.10
13093;DHT22;6612;49.568;11.000;2023-08-20T00:24:56;27.70;62.00
13093;DHT22;6612;49.568;11.000;2023-08-20T00:27:24;27.70;61.90
13093;DHT22;6612;49.568;11.000;2023-08-20T00:29:51;27.70;61.80
13093;DHT22;6612;49.568;11.000;2023-08-20T00:32:18;27.70;61.80
13093;DHT22;6612;49.568;11.000;2023-08-20T00:34:45;27.70;61.70
13093;DHT22;6612;49.568;11.000;2023-08-20T00:37:12;27.70;61.70
13093;DHT22;6612;49.568;11.000;2023-08-20T00:39:39;27.70;61.90
13093;DHT22;6612;49.568;11.000;2023-08-20T00:42:06;27.70;62.00
13093;DHT22;6612;49.568;11.000;2023-08-20T00:44:35;27.70;62.00
13093;DHT22;6612;49.568;11.000;2023-08-20T00:47:02;27.70;62.20
13093;DHT22;6612;49.568;11.000;2023-08-20T00:49:31;27.70;62.30
13093;DHT22;6612;49.568;11.000;2023-08-20T00:51:59;27.70;62.30
13093;DHT22;6612;49.568;11.000;2023-08-20T00:54:27;27.70;62.30
13093;DHT22;6612;49.568;11.000;2023-08-20T00:56:54;27.60;62.10
13093;DHT22;6612;49.568;11.000;2023-08-20T00:59:22;27.60;62.10
13093;DHT22;6612;49.568;11.000;2023-08-20T01:01:51;27.60;62.20
13093;DHT22;6612;49.568;11.000;2023-08-20T01:04:18;27.60;62.30
13093;DHT22;6612;49.568;11.000;2023-08-20T01:06:53;27.60;62.40
13093;DHT22;6612;49.568;11.000;2023-08-20T01:09:29;27.60;62.50
13093;DHT22;6612;49.568;11.000;2023-08-20T01:12:00;27.60;62.60
13093;DHT22;6612;49.568;11.000;2023-08-20T01:14:29;27.50;62.50
13093;DHT22;6612;49.568;11.000;2023-08-20T01:16:57;27.50;62.70
13093;DHT22;6612;49.568;11.000;2023-08-20T01:19:24;27.50;62.90
13093;DHT22;6612;49.568;11.000;2023-08-20T01:22:11;27.40;62.80
13093;DHT22;6612;49.568;11.000;2023-08-20T01:24:48;27.40;63.20
13093;DHT22;6612;49.568;11.000;2023-08-20T01:27:29;27.40;63.30
13093;DHT22;6612;49.568;11.000;2023-08-20T01:30:03;27.40;63.30
13093;DHT22;6612;49.568;11.000;2023-08-20T01:32:31;27.30;63.20
13093;DHT22;6612;49.568;11.000;2023-08-20T01:34:59;27.30;63.10
13093;DHT22;6612;49.568;11.000;2023-08-20T01:37:26;27.20;63.10
13093;DHT22;6612;49.568;11.000;2023-08-20T01:39:53;27.20;63.10
13093;DHT22;6612;49.568;11.000;2023-08-20T01:42:20;27.20;63.20
13093;DHT22;6612;49.568;11.000;2023-08-20T01:44:46;27.10;63.20
13093;DHT22;6612;49.568;11.000;2023-08-20T01:47:15;27.10;63.40
13093;DHT22;6612;49.568;11.000;2023-08-20T01:49:42;27.10;63.50
13093;DHT22;6612;49.568;11.000;2023-08-20T01:52:09;27.00;63.40
13093;DHT22;6612;49.568;11.000;2023-08-20T01:54:36;27.00;63.50
13093;DHT22;6612;49.568;11.000;2023-08-20T01:57:03;26.90;63.50
13093;DHT22;6612;49.568;11.000;2023-08-20T01:59:30;26.90;63.60
13093;DHT22;6612;49.568;11.000;2023-08-20T02:01:57;26.80;63.80
13093;DHT22;6612;49.568;11.000;2023-08-20T02:04:25;26.80;63.70
13093;DHT22;6612;49.568;11.000;2023-08-20T02:06:52;26.80;63.80
13093;DHT22;6612;49.568;11.000;2023-08-20T02:09:19;26.70;63.60
13093;DHT22;6612;49.568;11.000;2023-08-20T02:11:46;26.70;63.80
13093;DHT22;6612;49.568;11.000;2023-08-20T02:14:13;26.70;63.90
13093;DHT22;6612;49.568;11.000;2023-08-20T02:16:40;26.60;63.90
13093;DHT22;6612;49.568;11.000;2023-08-20T02:19:07;26.60;64.10
13093;DHT22;6612;49.568;11.000;2023-08-20T02:21:35;26.60;64.30
13093;DHT22;6612;49.568;11.000;2023-08-20T02:24:03;26.50;64.30
13093;DHT22;6612;49.568;11.000;2023-08-20T02:26:30;26.50;64.40
13093;DHT22;6612;49.568;11.000;2023-08-20T02:28:57;26.50;64.50
13093;DHT22;6612;49.568;11.000;2023-08-20T02:31:24;26.50;64.40
13093;DHT22;6612;49.568;11.000;2023-08-20T02:33:50;26.40;64.50
13093;DHT22;6612;49.568;11.000;2023-08-20T02:36:17;26.40;64.50
13093;DHT22;6612;49.568;11.000;2023-08-20T02:38:46;26.40;64.60
13093;DHT22;6612;49.568;11.000;2023-08-20T02:41:13;26.40;64.90
13093;DHT22;6612;49.568;11.000;2023-08-20T02:43:40;26.40;64.80
13093;DHT22;6612;49.568;11.000;2023-08-20T02:46:07;26.30;65.00
13093;DHT22;6612;49.568;11.000;2023-08-20T02:48:34;26.30;65.00
13093;DHT22;6612;49.568;11.000;2023-08-20T02:51:01;26.30;65.10
13093;DHT22;6612;49.568;11.000;2023-08-20T02:53:28;26.20;65.20
13093;DHT22;6612;49.568;11.000;2023-08-20T02:55:56;26.20;65.20
13093;DHT22;6612;49.568;11.000;2023-08-20T02:58:24;26.20;65.40
13093;DHT22;6612;49.568;11.000;2023-08-20T03:00:51;26.20;65.40
13093;DHT22;6612;49.568;11.000;2023-08-20T03:03:18;26.10;65.40
13093;DHT22;6612;49.568;11.000;2023-08-20T03:05:45;26.10;65.60
13093;DHT22;6612;49.568;11.000;2023-08-20T03:08:12;26.00;65.50
13093;DHT22;6612;49.568;11.000;2023-08-20T03:10:39;26.00;65.70
13093;DHT22;6612;49.568;11.000;2023-08-20T03:13:07;26.00;65.90
13093;DHT22;6612;49.568;11.000;2023-08-20T03:15:34;26.00;66.10
13093;DHT22;6612;49.568;11.000;2023-08-20T03:18:01;26.00;66.10
13093;DHT22;6612;49.568;11.000;2023-08-20T03:20:28;25.90;66.20
13093;DHT22;6612;49.568;11.000;2023-08-20T03:22:56;25.90;66.30
13093;DHT22;6612;49.568;11.000;2023-08-20T03:25:24;25.90;66.30
13093;DHT22;6612;49.568;11.000;2023-08-20T03:27:51;25.80;66.40
13093;DHT22;6612;49.568;11.000;2023-08-20T03:30:20;25.80;66.50
13093;DHT22;6612;49.568;11.000;2023-08-20T03:32:47;25.80;66.50
13093;DHT22;6612;49.568;11.000;2023-08-20T03:35:14;25.80;66.50
13093;DHT22;6612;49.568;11.000;2023-08-20T03:37:41;25.80;66.70
13093;DHT22;6612;49.568;11.000;2023-08-20T03:40:09;25.80;66.80
13093;DHT22;6612;49.568;11.000;2023-08-20T03:42:36;25.80;66.90
13093;DHT22;6612;49.568;11.000;2023-08-20T03:45:03;25.70;66.80
13093;DHT22;6612;49.568;11.000;2023-08-20T03:47:32;25.70;66.90
13093;DHT22;6612;49.568;11.000;2023-08-20T03:49:59;25.70;66.90
13093;DHT22;6612;49.568;11.000;2023-08-20T03:52:26;25.70;66.90
13093;DHT22;6612;49.568;11.000;2023-08-20T03:54:53;25.60;66.80
13093;DHT22;6612;49.568;11.000;2023-08-20T03:57:19;25.60;66.90
13093;DHT22;6612;49.568;11.000;2023-08-20T03:59:47;25.60;67.00
13093;DHT22;6612;49.568;11.000;2023-08-20T04:02:14;25.60;66.90
13093;DHT22;6612;49.568;11.000;2023-08-20T04:04:43;25.50;66.80
13093;DHT22;6612;49.568;11.000;2023-08-20T04:07:10;25.50;66.90
13093;DHT22;6612;49.568;11.000;2023-08-20T04:09:37;25.50;66.90
13093;DHT22;6612;49.568;11.000;2023-08-20T04:12:06;25.50;66.90
13093;DHT22;6612;49.568;11.000;2023-08-20T04:14:33;25.40;67.00
13093;DHT22;6612;49.568;11.000;2023-08-20T04:17:00;25.40;67.70
13093;DHT22;6612;49.568;11.000;2023-08-20T04:19:27;25.40;67.10
13093;DHT22;6612;49.568;11.000;2023-08-20T04:21:55;25.30;67.20
13093;DHT22;6612;49.568;11.000;2023-08-20T04:24:22;25.30;67.20
13093;DHT22;6612;49.568;11.000;2023-08-20T04:26:49;25.30;67.40
13093;DHT22;6612;49.568;11.000;2023-08-20T04:29:16;25.30;67.70
13093;DHT22;6612;49.568;11.000;2023-08-20T04:31:43;25.30;67.70
13093;DHT22;6612;49.568;11.000;2023-08-20T04:34:11;25.30;67.90
13093;DHT22;6612;49.568;11.000;2023-08-20T04:36:38;25.30;68.00
13093;DHT22;6612;49.568;11.000;2023-08-20T04:39:06;25.30;68.20
13093;DHT22;6612;49.568;11.000;2023-08-20T04:41:33;25.30;68.60
13093;DHT22;6612;49.568;11.000;2023-08-20T04:44:00;25.30;68.70
13093;DHT22;6612;49.568;11.000;2023-08-20T04:46:27;25.30;68.70
13093;DHT22;6612;49.568;11.000;2023-08-20T04:48:54;25.30;68.90
13093;DHT22;6612;49.568;11.000;2023-08-20T04:51:21;25.40;69.00
13093;DHT22;6612;49.568;11.000;2023-08-20T04:53:48;25.50;69.30
13093;DHT22;6612;49.568;11.000;2023-08-20T04:56:17;25.50;69.40
13093;DHT22;6612;49.568;11.000;2023-08-20T04:58:44;25.60;69.60
13093;DHT22;6612;49.568;11.000;2023-08-20T05:01:11;25.60;69.60
13093;DHT22;6612;49.568;11.000;2023-08-20T05:03:38;25.70;69.70
13093;DHT22;6612;49.568;11.000;2023-08-20T05:06:05;25.80;69.80
13093;DHT22;6612;49.568;11.000;2023-08-20T05:08:32;25.90;70.10
13093;DHT22;6612;49.568;11.000;2023-08-20T05:10:59;26.10;70.30
13093;DHT22;6612;49.568;11.000;2023-08-20T05:13:28;26.20;70.10
13093;DHT22;6612;49.568;11.000;2023-08-20T05:15:55;26.30;70.00
13093;DHT22;6612;49.568;11.000;2023-08-20T05:18:22;26.50;70.20
13093;DHT22;6612;49.568;11.000;2023-08-20T05:20:48;26.70;70.40
13093;DHT22;6612;49.568;11.000;2023-08-20T05:23:15;26.90;70.50
13093;DHT22;6612;49.568;11.000;2023-08-20T05:25:42;27.10;69.80
13093;DHT22;6612;49.568;11.000;2023-08-20T05:28:09;27.30;69.70
13093;DHT22;6612;49.568;11.000;2023-08-20T05:30:38;27.40;68.90
13093;DHT22;6612;49.568;11.000;2023-08-20T05:33:04;27.60;68.80
13093;DHT22;6612;49.568;11.000;2023-08-20T05:35:31;27.70;67.90
13093;DHT22;6612;49.568;11.000;2023-08-20T05:37:58;27.80;67.20
13093;DHT22;6612;49.568;11.000;2023-08-20T05:40:25;27.90;66.30
13093;DHT22;6612;49.568;11.000;2023-08-20T05:42:52;28.00;65.90
13093;DHT22;6612;49.568;11.000;2023-08-20T05:45:19;28.00;65.30
13093;DHT22;6612;49.568;11.000;2023-08-20T05:47:47;28.10;65.00
13093;DHT22;6612;49.568;11.000;2023-08-20T05:50:14;28.00;65.50
13093;DHT22;6612;49.568;11.000;2023-08-20T05:52:41;28.10;64.90
13093;DHT22;6612;49.568;11.000;2023-08-20T05:55:08;28.10;65.00
13093;DHT22;6612;49.568;11.000;2023-08-20T05:57:36;28.10;65.40
13093;DHT22;6612;49.568;11.000;2023-08-20T06:00:04;28.30;66.30
13093;DHT22;6612;49.568;11.000;2023-08-20T06:02:31;28.50;67.30
13093;DHT22;6612;49.568;11.000;2023-08-20T06:04:59;28.90;68.30
13093;DHT22;6612;49.568;11.000;2023-08-20T06:07:26;29.30;68.50
13093;DHT22;6612;49.568;11.000;2023-08-20T06:09:53;29.70;68.70
13093;DHT22;6612;49.568;11.000;2023-08-20T06:12:20;30.30;67.50
13093;DHT22;6612;49.568;11.000;2023-08-20T06:14:47;30.60;65.60
13093;DHT22;6612;49.568;11.000;2023-08-20T06:17:14;31.00;63.60
13093;DHT22;6612;49.568;11.000;2023-08-20T06:19:41;31.40;62.60
13093;DHT22;6612;49.568;11.000;2023-08-20T06:22:10;31.90;62.50
13093;DHT22;6612;49.568;11.000;2023-08-20T06:24:37;32.30;60.90
13093;DHT22;6612;49.568;11.000;2023-08-20T06:27:04;32.70;60.20
13093;DHT22;6612;49.568;11.000;2023-08-20T06:29:31;33.20;59.50
13093;DHT22;6612;49.568;11.000;2023-08-20T06:31:58;33.60;59.00
13093;DHT22;6612;49.568;11.000;2023-08-20T06:34:25;34.20;58.70
13093;DHT22;6612;49.568;11.000;2023-08-20T06:36:52;34.70;58.30
13093;DHT22;6612;49.568;11.000;2023-08-20T06:39:21;35.30;57.80
13093;DHT22;6612;49.568;11.000;2023-08-20T06:41:47;35.90;56.00
13093;DHT22;6612;49.568;11.000;2023-08-20T06:44:14;36.40;54.90
13093;DHT22;6612;49.568;11.000;2023-08-20T06:46:41;36.90;54.00
13093;DHT22;6612;49.568;11.000;2023-08-20T06:49:08;37.40;53.00
13093;DHT22;6612;49.568;11.000;2023-08-20T06:51:35;37.80;51.90
13093;DHT22;6612;49.568;11.000;2023-08-20T06:54:02;38.30;50.90
13093;DHT22;6612;49.568;11.000;2023-08-20T06:56:33;38.70;50.00
13093;DHT22;6612;49.568;11.000;2023-08-20T06:59:00;39.20;49.20
13093;DHT22;6612;49.568;11.000;2023-08-20T07:01:27;39.60;48.30
13093;DHT22;6612;49.568;11.000;2023-08-20T07:03:54;39.90;48.10
13093;DHT22;6612;49.568;11.000;2023-08-20T07:06:21;40.40;46.80
13093;DHT22;6612;49.568;11.000;2023-08-20T07:08:48;40.70;45.70
13093;DHT22;6612;49.568;11.000;2023-08-20T07:11:15;41.00;44.30
13093;DHT22;6612;49.568;11.000;2023-08-20T07:13:44;41.20;43.20
13093;DHT22;6612;49.568;11.000;2023-08-20T07:16:11;41.30;41.90
13093;DHT22;6612;49.568;11.000;2023-08-20T07:18:38;41.20;41.20
13093;DHT22;6612;49.568;11.000;2023-08-20T07:21:05;40.90;40.30
13093;DHT22;6612;49.568;11.000;2023-08-20T07:23:33;40.70;39.80
13093;DHT22;6612;49.568;11.000;2023-08-20T07:26:08;40.40;39.90
13093;DHT22;6612;49.568;11.000;2023-08-20T07:28:36;40.00;39.60
13093;DHT22;6612;49.568;11.000;2023-08-20T07:31:21;39.70;40.70
13093;DHT22;6612;49.568;11.000;2023-08-20T07:33:49;39.50;41.20
13093;DHT22;6612;49.568;11.000;2023-08-20T07:36:17;39.40;41.90
13093;DHT22;6612;49.568;11.000;2023-08-20T07:38:44;39.30;42.20
13093;DHT22;6612;49.568;11.000;2023-08-20T07:41:11;39.40;42.90
13093;DHT22;6612;49.568;11.000;2023-08-20T07:43:39;39.60;43.00
13093;DHT22;6612;49.568;11.000;2023-08-20T07:46:06;39.80;43.20
13093;DHT22;6612;49.568;11.000;2023-08-20T07:48:35;40.10;42.60
13093;DHT22;6612;49.568;11.000;2023-08-20T07:51:02;40.30;41.40
13093;DHT22;6612;49.568;11.000;2023-08-20T07:53:30;40.40;40.30
13093;DHT22;6612;49.568;11.000;2023-08-20T07:55:57;40.40;39.60
13093;DHT22;6612;49.568;11.000;2023-08-20T07:58:24;40.20;39.20
13093;DHT22;6612;49.568;11.000;2023-08-20T08:00:51;40.00;39.00
13093;DHT22;6612;49.568;11.000;2023-08-20T08:03:18;39.80;39.10
13093;DHT22;6612;49.568;11.000;2023-08-20T08:05:47;39.50;39.50
13093;DHT22;6612;49.568;11.000;2023-08-20T08:08:15;39.20;38.90
13093;DHT22;6612;49.568;11.000;2023-08-20T08:10:42;38.90;39.00
13093;DHT22;6612;49.568;11.000;2023-08-20T08:13:10;38.60;39.00
13093;DHT22;6612;49.568;11.000;2023-08-20T08:15:37;38.40;39.50
13093;DHT22;6612;49.568;11.000;2023-08-20T08:18:05;38.20;40.10
13093;DHT22;6612;49.568;11.000;2023-08-20T08:20:32;37.90;40.70
13093;DHT22;6612;49.568;11.000;2023-08-20T08:23:00;37.70;40.90
13093;DHT22;6612;49.568;11.000;2023-08-20T08:25:27;37.50;41.20
13093;DHT22;6612;49.568;11.000;2023-08-20T08:27:54;37.30;41.60
13093;DHT22;6612;49.568;11.000;2023-08-20T08:30:21;37.20;41.90
13093;DHT22;6612;49.568;11.000;2023-08-20T08:32:48;37.00;42.50
13093;DHT22;6612;49.568;11.000;2023-08-20T08:35:17;36.90;42.90
13093;DHT22;6612;49.568;11.000;2023-08-20T08:37:43;36.80;42.80
13093;DHT22;6612;49.568;11.000;2023-08-20T08:40:13;36.70;43.00
13093;DHT22;6612;49.568;11.000;2023-08-20T08:42:40;36.60;43.40
13093;DHT22;6612;49.568;11.000;2023-08-20T08:45:09;36.60;43.70
13093;DHT22;6612;49.568;11.000;2023-08-20T08:47:36;36.50;43.60
13093;DHT22;6612;49.568;11.000;2023-08-20T08:50:04;36.40;43.60
13093;DHT22;6612;49.568;11.000;2023-08-20T08:52:32;36.40;43.10
13093;DHT22;6612;49.568;11.000;2023-08-20T08:55:00;36.30;44.00
13093;DHT22;6612;49.568;11.000;2023-08-20T08:57:29;36.30;44.20
13093;DHT22;6612;49.568;11.000;2023-08-20T08:59:57;36.20;44.90
13093;DHT22;6612;49.568;11.000;2023-08-20T09:02:24;36.10;45.30
13093;DHT22;6612;49.568;11.000;2023-08-20T09:04:52;36.10;45.10
13093;DHT22;6612;49.568;11.000;2023-08-20T09:07:19;36.10;44.80
13093;DHT22;6612;49.568;11.000;2023-08-20T09:09:46;36.10;45.30
13093;DHT22;6612;49.568;11.000;2023-08-20T09:12:15;36.10;45.50
13093;DHT22;6612;49.568;11.000;2023-08-20T09:14:46;36.00;45.70
13093;DHT22;6612;49.568;11.000;2023-08-20T09:17:14;36.00;45.20
13093;DHT22;6612;49.568;11.000;2023-08-20T09:19:43;36.00;45.40
13093;DHT22;6612;49.568;11.000;2023-08-20T09:22:11;36.00;45.70
13093;DHT22;6612;49.568;11.000;2023-08-20T09:24:43;36.00;45.50
13093;DHT22;6612;49.568;11.000;2023-08-20T09:27:12;35.90;45.60
13093;DHT22;6612;49.568;11.000;2023-08-20T09:29:47;35.90;44.90
13093;DHT22;6612;49.568;11.000;2023-08-20T09:32:15;35.90;44.90
13093;DHT22;6612;49.568;11.000;2023-08-20T09:34:42;35.90;45.70
13093;DHT22;6612;49.568;11.000;2023-08-20T09:37:09;35.90;45.10
13093;DHT22;6612;49.568;11.000;2023-08-20T09:39:36;35.90;45.00
13093;DHT22;6612;49.568;11.000;2023-08-20T09:42:04;35.90;44.70
13093;DHT22;6612;49.568;11.000;2023-08-20T09:44:33;35.80;44.60
13093;DHT22;6612;49.568;11.000;2023-08-20T09:47:06;35.90;45.20
13093;DHT22;6612;49.568;11.000;2023-08-20T09:49:36;35.90;44.70
13093;DHT22;6612;49.568;11.000;2023-08-20T09:52:05;35.90;44.50
13093;DHT22;6612;49.568;11.000;2023-08-20T09:54:40;35.90;44.10
13093;DHT22;6612;49.568;11.000;2023-08-20T09:57:14;35.90;43.70
13093;DHT22;6612;49.568;11.000;2023-08-20T09:59:41;35.80;43.30
13093;DHT22;6612;49.568;11.000;2023-08-20T10:02:12;35.80;43.60
13093;DHT22;6612;49.568;11.000;2023-08-20T10:04:42;35.80;43.40
13093;DHT22;6612;49.568;11.000;2023-08-20T10:07:10;35.80;43.90
13093;DHT22;6612;49.568;11.000;2023-08-20T10:09:39;35.80;45.10
13093;DHT22;6612;49.568;11.000;2023-08-20T10:12:07;35.80;45.60
13093;DHT22;6612;49.568;11.000;2023-08-20T10:14:34;35.90;45.40
13093;DHT22;6612;49.568;11.000;2023-08-20T10:17:06;36.00;45.40
13093;DHT22;6612;49.568;11.000;2023-08-20T10:19:36;36.10;45.30
13093;DHT22;6612;49.568;11.000;2023-08-20T10:22:03;36.20;44.60
13093;DHT22;6612;49.568;11.000;2023-08-20T10:24:40;36.30;45.20
13093;DHT22;6612;49.568;11.000;2023-08-20T10:27:09;36.40;45.30
13093;DHT22;6612;49.568;11.000;2023-08-20T10:29:37;36.40;44.40
13093;DHT22;6612;49.568;11.000;2023-08-20T10:32:09;36.50;44.70
13093;DHT22;6612;49.568;11.000;2023-08-20T10:34:38;36.50;44.20
13093;DHT22;6612;49.568;11.000;2023-08-20T10:37:13;36.60;42.90
13093;DHT22;6612;49.568;11.000;2023-08-20T10:39:40;36.60;41.50
13093;DHT22;6612;49.568;11.000;2023-08-20T10:42:09;36.60;43.40
13093;DHT22;6612;49.568;11.000;2023-08-20T10:44:56;36.70;43.30
13093;DHT22;6612;49.568;11.000;2023-08-20T10:47:24;36.70;42.10
13093;DHT22;6612;49.568;11.000;2023-08-20T10:49:54;36.70;43.00
13093;DHT22;6612;49.568;11.000;2023-08-20T10:52:23;36.70;42.70
13093;DHT22;6612;49.568;11.000;2023-08-20T10:54:50;36.80;43.10
13093;DHT22;6612;49.568;11.000;2023-08-20T10:57:18;36.90;43.70
13093;DHT22;6612;49.568;11.000;2023-08-20T10:59:56;36.90;43.50
13093;DHT22;6612;49.568;11.000;2023-08-20T11:02:25;37.00;44.10
13093;DHT22;6612;49.568;11.000;2023-08-20T11:04:53;37.10;43.60
13093;DHT22;6612;49.568;11.000;2023-08-20T11:07:21;37.20;43.10
13093;DHT22;6612;49.568;11.000;2023-08-20T11:09:50;37.30;43.00
13093;DHT22;6612;49.568;11.000;2023-08-20T11:12:20;37.30;42.20
13093;DHT22;6612;49.568;11.000;2023-08-20T11:14:47;37.40;42.40
13093;DHT22;6612;49.568;11.000;2023-08-20T11:17:14;37.40;43.00
13093;DHT22;6612;49.568;11.000;2023-08-20T11:19:41;37.40;42.30
13093;DHT22;6612;49.568;11.000;2023-08-20T11:22:10;37.40;42.40
13093;DHT22;6612;49.568;11.000;2023-08-20T11:24:41;37.40;42.70
13093;DHT22;6612;49.568;11.000;2023-08-20T11:27:08;37.50;42.20
13093;DHT22;6612;49.568;11.000;2023-08-20T11:29:35;37.50;42.00
13093;DHT22;6612;49.568;11.000;2023-08-20T11:32:02;37.50;42.20
13093;DHT22;6612;49.568;11.000;2023-08-20T11:34:31;37.50;42.50
13093;DHT22;6612;49.568;11.000;2023-08-20T11:36:58;37.50;42.50
13093;DHT22;6612;49.568;11.000;2023-08-20T11:39:29;37.50;42.30
13093;DHT22;6612;49.568;11.000;2023-08-20T11:41:56;37.50;41.20
13093;DHT22;6612;49.568;11.000;2023-08-20T11:44:23;37.50;42.00
13093;DHT22;6612;49.568;11.000;2023-08-20T11:46:51;37.50;41.60
13093;DHT22;6612;49.568;11.000;2023-08-20T11:49:26;37.50;41.00
13093;DHT22;6612;49.568;11.000;2023-08-20T11:51:55;37.40;40.40
13093;DHT22;6612;49.568;11.000;2023-08-20T11:54:22;37.40;41.30
13093;DHT22;6612;49.568;11.000;2023-08-20T11:56:52;37.40;41.70
13093;DHT22;6612;49.568;11.000;2023-08-20T11:59:28;37.30;41.20
13093;DHT22;6612;49.568;11.000;2023-08-20T12:01:57;37.30;41.50
13093;DHT22;6612;49.568;11.000;2023-08-20T12:04:26;37.20;40.60
13093;DHT22;6612;49.568;11.000;2023-08-20T12:07:02;37.20;40.60
13093;DHT22;6612;49.568;11.000;2023-08-20T12:09:31;37.10;41.00
13093;DHT22;6612;49.568;11.000;2023-08-20T12:12:00;37.10;41.60
13093;DHT22;6612;49.568;11.000;2023-08-20T12:14:28;37.00;41.70
13093;DHT22;6612;49.568;11.000;2023-08-20T12:16:55;37.00;41.50
13093;DHT22;6612;49.568;11.000;2023-08-20T12:19:22;36.90;41.40
13093;DHT22;6612;49.568;11.000;2023-08-20T12:21:49;36.90;41.50
13093;DHT22;6612;49.568;11.000;2023-08-20T12:24:16;36.90;41.60
13093;DHT22;6612;49.568;11.000;2023-08-20T12:26:45;36.90;40.90
13093;DHT22;6612;49.568;11.000;2023-08-20T12:29:13;36.80;41.40
13093;DHT22;6612;49.568;11.000;2023-08-20T12:31:40;36.80;41.70
13093;DHT22;6612;49.568;11.000;2023-08-20T12:34:08;36.80;42.50
13093;DHT22;6612;49.568;11.000;2023-08-20T12:36:35;36.80;41.50
13093;DHT22;6612;49.568;11.000;2023-08-20T12:39:02;36.80;42.20
13093;DHT22;6612;49.568;11.000;2023-08-20T12:41:30;36.80;41.80
13093;DHT22;6612;49.568;11.000;2023-08-20T12:43:57;36.80;42.10
13093;DHT22;6612;49.568;11.000;2023-08-20T12:46:26;36.80;41.80
13093;DHT22;6612;49.568;11.000;2023-08-20T12:48:53;36.70;42.00
13093;DHT22;6612;49.568;11.000;2023-08-20T12:51:20;36.70;41.50
13093;DHT22;6612;49.568;11.000;2023-08-20T12:53:48;36.70;41.20
13093;DHT22;6612;49.568;11.000;2023-08-20T12:56:15;36.70;41.40
13093;DHT22;6612;49.568;11.000;2023-08-20T12:58:42;36.70;41.20
13093;DHT22;6612;49.568;11.000;2023-08-20T13:01:09;36.70;41.30
13093;DHT22;6612;49.568;11.000;2023-08-20T13:03:38;36.70;41.30
13093;DHT22;6612;49.568;11.000;2023-08-20T13:06:05;36.70;41.20
13093;DHT22;6612;49.568;11.000;2023-08-20T13:08:33;36.60;41.00
13093;DHT22;6612;49.568;11.000;2023-08-20T13:11:03;36.60;41.90
13093;DHT22;6612;49.568;11.000;2023-08-20T13:13:32;36.70;41.10
13093;DHT22;6612;49.568;11.000;2023-08-20T13:16:00;36.70;41.70
13093;DHT22;6612;49.568;11.000;2023-08-20T13:18:28;36.70;40.80
13093;DHT22;6612;49.568;11.000;2023-08-20T13:20:56;36.70;41.40
13093;DHT22;6612;49.568;11.000;2023-08-20T13:23:23;36.60;41.10
13093;DHT22;6612;49.568;11.000;2023-08-20T13:25:50;36.60;41.10
13093;DHT22;6612;49.568;11.000;2023-08-20T13:28:17;36.60;41.30
13093;DHT22;6612;49.568;11.000;2023-08-20T13:30:44;36.60;41.50
13093;DHT22;6612;49.568;11.000;2023-08-20T13:33:12;36.60;41.50
13093;DHT22;6612;49.568;11.000;2023-08-20T13:35:39;36.50;41.50
13093;DHT22;6612;49.568;11.000;2023-08-20T13:38:08;36.60;41.30
13093;DHT22;6612;49.568;11.000;2023-08-20T13:40:35;36.50;41.00
13093;DHT22;6612;49.568;11.000;2023-08-20T13:43:02;36.50;40.60
13093;DHT22;6612;49.568;11.000;2023-08-20T13:45:29;36.50;40.90
13093;DHT22;6612;49.568;11.000;2023-08-20T13:47:56;36.50;41.10
13093;DHT22;6612;49.568;11.000;2023-08-20T13:50:23;36.50;41.50
13093;DHT22;6612;49.568;11.000;2023-08-20T13:52:50;36.40;41.30
13093;DHT22;6612;49.568;11.000;2023-08-20T13:55:18;36.40;40.40
13093;DHT22;6612;49.568;11.000;2023-08-20T13:57:46;36.40;40.30
13093;DHT22;6612;49.568;11.000;2023-08-20T14:00:14;36.40;39.60
13093;DHT22;6612;49.568;11.000;2023-08-20T14:02:41;36.30;39.70
13093;DHT22;6612;49.568;11.000;2023-08-20T14:05:08;36.30;40.20
13093;DHT22;6612;49.568;11.000;2023-08-20T14:07:35;36.30;40.60
13093;DHT22;6612;49.568;11.000;2023-08-20T14:10:03;36.30;40.80
13093;DHT22;6612;49.568;11.000;2023-08-20T14:12:32;36.30;40.70
13093;DHT22;6612;49.568;11.000;2023-08-20T14:14:59;36.30;40.50
13093;DHT22;6612;49.568;11.000;2023-08-20T14:17:27;36.20;40.50
13093;DHT22;6612;49.568;11.000;2023-08-20T14:19:54;36.20;40.50
13093;DHT22;6612;49.568;11.000;2023-08-20T14:22:21;36.20;40.40
13093;DHT22;6612;49.568;11.000;2023-08-20T14:24:48;36.20;40.10
13093;DHT22;6612;49.568;11.000;2023-08-20T14:27:15;36.20;40.10
13093;DHT22;6612;49.568;11.000;2023-08-20T14:29:44;36.20;40.10
13093;DHT22;6612;49.568;11.000;2023-08-20T14:32:10;36.20;40.60
13093;DHT22;6612;49.568;11.000;2023-08-20T14:34:38;36.20;40.00
13093;DHT22;6612;49.568;11.000;2023-08-20T14:37:05;36.20;39.60
13093;DHT22;6612;49.568;11.000;2023-08-20T14:39:31;36.20;39.30
13093;DHT22;6612;49.568;11.000;2023-08-20T14:41:59;36.10;39.00
13093;DHT22;6612;49.568;11.000;2023-08-20T14:44:28;36.10;39.30
13093;DHT22;6612;49.568;11.000;2023-08-20T14:46:56;36.10;39.30
13093;DHT22;6612;49.568;11.000;2023-08-20T14:49:24;36.10;39.30
13093;DHT22;6612;49.568;11.000;2023-08-20T14:51:50;36.10;39.70
13093;DHT22;6612;49.568;11.000;2023-08-20T14:54:17;36.10;39.10
13093;DHT22;6612;49.568;11.000;2023-08-20T14:56:44;36.10;39.00
13093;DHT22;6612;49.568;11.000;2023-08-20T14:59:12;36.00;38.30
13093;DHT22;6612;49.568;11.000;2023-08-20T15:01:39;36.00;38.40
13093;DHT22;6612;49.568;11.000;2023-08-20T15:04:07;36.00;38.50
13093;DHT22;6612;49.568;11.000;2023-08-20T15:06:34;36.00;38.80
13093;DHT22;6612;49.568;11.000;2023-08-20T15:09:01;36.00;38.00
13093;DHT22;6612;49.568;11.000;2023-08-20T15:11:29;36.00;38.30
13093;DHT22;6612;49.568;11.000;2023-08-20T15:13:56;36.00;38.40
13093;DHT22;6612;49.568;11.000;2023-08-20T15:16:23;36.00;38.70
13093;DHT22;6612;49.568;11.000;2023-08-20T15:18:50;36.00;38.90
13093;DHT22;6612;49.568;11.000;2023-08-20T15:21:18;35.90;38.90
13093;DHT22;6612;49.568;11.000;2023-08-20T15:23:45;35.90;38.70
13093;DHT22;6612;49.568;11.000;2023-08-20T15:26:12;35.90;38.90
13093;DHT22;6612;49.568;11.000;2023-08-20T15:28:39;35.90;38.70
13093;DHT22;6612;49.568;11.000;2023-08-20T15:31:06;35.90;38.40
13093;DHT22;6612;49.568;11.000;2023-08-20T15:33:33;35.90;38.60